Dott, West Virginia
Current Conditions -  °F | °C
As of 8:08 PM on Tuesday 21 Oct 2014 (Local Time) from KBLF Reporting Station
Overcast Overcast  
Wind Chill: 41°   Ceiling: 1400
Heat Index: 45°   Visibility: 10mi
Dew Point: 39°   Wind: 8mph
Humidity: 80%   Direction: 310°NW
Pressure: 30.03"   Gusts: NA
Location:  37.4544°N, 81.2833°W
Report Text: KBLF 220008Z AUTO 31007KT 290V350 10SM BKN014 BKN026 OVC040 07/04 A3003 RMK AO2 T00720039
Loading
Personal Weather Stations






























Interactive Weather Map
Tropical Storm Tracking
New forecast layout! Learn more

10-Day Weather Forecast

Advertisements
Track Severe Weather on mobile